createdAt,value
2018-08-06T05:46:07.983Z,90
2018-08-06T05:46:28.892Z,89.4
2018-08-06T05:46:50.336Z,90
2018-08-06T05:47:12.238Z,90
2018-08-06T05:47:33.751Z,90
2018-08-06T05:47:54.707Z,90
2018-08-06T05:48:16.323Z,89.8
2018-08-06T05:48:37.318Z,90.1
2018-08-06T05:48:58.133Z,90
2018-08-06T05:49:18.700Z,89.8
2018-08-06T05:49:39.232Z,90
2018-08-06T05:50:00.046Z,89.9
2018-08-06T05:50:20.397Z,90.2
2018-08-06T05:50:41.327Z,90.3
2018-08-06T05:51:02.699Z,90.4
2018-08-06T05:51:23.913Z,90.2
2018-08-06T05:51:45.466Z,90.4
2018-08-06T05:52:07.821Z,89.9
2018-08-06T05:52:28.389Z,90.1
2018-08-06T05:52:49.966Z,90.4
2018-08-06T05:53:10.574Z,90
2018-08-06T05:53:31.042Z,89.8
2018-08-06T05:53:52.678Z,89.5
2018-08-06T05:54:14.735Z,89.4
2018-08-06T05:54:36.265Z,89.4
2018-08-06T05:54:56.965Z,89.2
2018-08-06T05:55:17.622Z,89.6
2018-08-06T05:55:38.407Z,89.7
2018-08-06T05:55:59.160Z,88.8
2018-08-06T05:56:19.654Z,88.8
2018-08-06T05:56:39.911Z,89.2
2018-08-06T05:57:01.708Z,89.2
2018-08-06T05:57:22.412Z,89.5
2018-08-06T05:57:42.691Z,89.8
2018-08-06T05:58:03.163Z,89.9
2018-08-06T05:58:23.576Z,90
2018-08-06T05:58:44.124Z,90.2
2018-08-06T05:59:05.260Z,90.3
2018-08-06T05:59:27.211Z,90.2
2018-08-06T05:59:47.584Z,90
2018-08-06T06:00:08.842Z,89.8
2018-08-06T06:00:29.313Z,89.5
2018-08-06T06:00:50.414Z,89.7
2018-08-06T06:01:10.809Z,88.9
2018-08-06T06:01:31.289Z,88.2
2018-08-06T06:01:52.521Z,88.1
2018-08-06T06:02:13.162Z,88.5
2018-08-06T06:02:34.172Z,88.9
2018-08-06T06:02:55.368Z,88.8
2018-08-06T06:03:16.763Z,89.3
2018-08-06T06:03:37.297Z,89.7
2018-08-06T06:03:57.748Z,89.5
2018-08-06T06:04:18.718Z,89.3
2018-08-06T06:04:38.987Z,89.5
2018-08-06T06:05:00.303Z,89.1
2018-08-06T06:05:20.654Z,88.5
2018-08-06T06:05:41.660Z,89.2
2018-08-06T06:06:02.567Z,89.6
2018-08-06T06:06:23.657Z,89.5
2018-08-06T06:06:43.930Z,88.9
2018-08-06T06:07:04.286Z,88.1
2018-08-06T06:07:24.382Z,88.2
2018-08-06T06:07:44.840Z,88.1
2018-08-06T06:08:05.301Z,88.5
2018-08-06T06:08:25.881Z,88.8
2018-08-06T06:08:46.185Z,89.1
2018-08-06T06:09:06.649Z,88.4
2018-08-06T06:09:26.656Z,88.6
2018-08-06T06:09:46.929Z,89.2
2018-08-06T06:10:07.345Z,89.6
2018-08-06T06:10:28.004Z,89.3
2018-08-06T06:10:48.369Z,89.5
2018-08-06T06:11:08.796Z,89.8
2018-08-06T06:11:29.766Z,89.2
2018-08-06T06:11:51.245Z,88.8
2018-08-06T06:12:11.661Z,88.6
2018-08-06T06:12:32.781Z,87.9
2018-08-06T06:12:53.471Z,88
2018-08-06T06:13:14.668Z,88.3
2018-08-06T06:13:35.051Z,87.8
2018-08-06T06:13:55.305Z,87.7
2018-08-06T06:14:15.641Z,88.2
2018-08-06T06:14:35.909Z,88.2
2018-08-06T06:14:56.173Z,88.1
2018-08-06T06:15:16.367Z,88.1
2018-08-06T06:15:37.662Z,88.3
2018-08-06T06:15:58.261Z,88.2
2018-08-06T06:16:18.479Z,88.2
2018-08-06T06:16:38.778Z,88.4
2018-08-06T06:16:58.994Z,88.5
2018-08-06T06:17:19.409Z,88
2018-08-06T06:17:39.631Z,88.1
2018-08-06T06:18:00.725Z,87.7
2018-08-06T06:18:21.009Z,88.2
2018-08-06T06:18:41.367Z,88.4
2018-08-06T06:19:02.811Z,88.2
2018-08-06T06:19:23.263Z,87.9
2018-08-06T06:19:43.551Z,88
2018-08-06T06:20:04.727Z,88.5
2018-08-06T06:20:25.193Z,88.3
2018-08-06T06:20:45.548Z,88.1
2018-08-06T06:21:05.893Z,87.9
2018-08-06T06:21:26.130Z,88
2018-08-06T06:21:47.054Z,88
2018-08-06T06:22:07.376Z,88.2
2018-08-06T06:22:27.585Z,88
2018-08-06T06:22:48.773Z,87.8
2018-08-06T06:23:09.054Z,88.3
2018-08-06T06:23:29.267Z,88.2
2018-08-06T06:23:49.699Z,88.1
2018-08-06T06:24:11.790Z,88.2
2018-08-06T06:24:32.037Z,87.5
2018-08-06T06:24:52.259Z,86.8
2018-08-06T06:25:12.501Z,86.8
2018-08-06T06:25:32.915Z,86.2
2018-08-06T06:25:53.310Z,86.9
2018-08-06T06:26:13.491Z,87.3
2018-08-06T06:26:33.856Z,86.9
2018-08-06T06:26:54.545Z,87.1
2018-08-06T06:27:14.845Z,87.2
2018-08-06T06:27:35.083Z,87.2
2018-08-06T06:27:56.202Z,87
2018-08-06T06:28:17.294Z,86.4
2018-08-06T06:28:37.746Z,85.7
2018-08-06T06:28:58.771Z,86.2
2018-08-06T06:29:19.828Z,86.1
2018-08-06T06:29:41.283Z,86.9
2018-08-06T06:30:03.208Z,86.9
2018-08-06T06:30:24.763Z,87
2018-08-06T06:30:45.689Z,86.4
2018-08-06T06:31:06.162Z,87
2018-08-06T06:31:27.187Z,87.7
2018-08-06T06:31:47.690Z,87.6
2018-08-06T06:32:08.970Z,87.2
2018-08-06T06:32:30.245Z,87.2
2018-08-06T06:32:51.243Z,87.1
2018-08-06T06:33:12.321Z,86.5
2018-08-06T06:33:32.578Z,86.8
2018-08-06T06:33:53.905Z,86.4
2018-08-06T06:34:14.247Z,86.5
2018-08-06T06:34:34.537Z,86.8
2018-08-06T06:34:54.767Z,86.9
2018-08-06T06:35:14.917Z,87
2018-08-06T06:35:35.311Z,87
2018-08-06T06:35:56.183Z,86.7
2018-08-06T06:36:16.451Z,86.9
2018-08-06T06:36:36.840Z,87.5
2018-08-06T06:36:57.159Z,87.5
2018-08-06T06:37:18.281Z,86.8
2018-08-06T06:37:39.277Z,86.8
2018-08-06T06:37:59.773Z,87
2018-08-06T06:38:20.155Z,86.9
2018-08-06T06:38:40.593Z,86.3
2018-08-06T06:39:01.136Z,86.2
2018-08-06T06:39:21.586Z,86
2018-08-06T06:39:41.948Z,86.4
2018-08-06T06:40:02.271Z,86.2
2018-08-06T06:40:22.480Z,86.2
2018-08-06T06:40:42.689Z,86
2018-08-06T06:41:02.957Z,85
2018-08-06T06:41:23.295Z,84.7
2018-08-06T06:41:43.946Z,84.1
2018-08-06T06:42:04.365Z,83.8
2018-08-06T06:42:24.850Z,83.8
2018-08-06T06:42:45.190Z,84.7
2018-08-06T06:43:05.509Z,85.3
2018-08-06T06:43:25.790Z,84.7
2018-08-06T06:43:46.104Z,84.5
2018-08-06T06:44:07.251Z,85.4
2018-08-06T06:44:28.349Z,85.2
2018-08-06T06:44:49.245Z,85.4
2018-08-06T06:45:09.610Z,85
2018-08-06T06:45:30.054Z,85.3
2018-08-06T06:45:50.891Z,85.5
2018-08-06T06:46:11.134Z,85.5
2018-08-06T06:46:31.372Z,85.4
2018-08-06T06:46:51.796Z,84.6
2018-08-06T06:47:12.173Z,83.9
2018-08-06T06:47:32.537Z,83.6
2018-08-06T06:47:52.878Z,82.6
2018-08-06T06:48:13.166Z,81.9
2018-08-06T06:48:33.587Z,82.7
2018-08-06T06:48:54.269Z,83
2018-08-06T06:49:14.939Z,82.9
2018-08-06T06:49:35.359Z,83.2
2018-08-06T06:49:55.648Z,83.9
2018-08-06T06:50:16.748Z,83.8
2018-08-06T06:50:37.062Z,83.2
2018-08-06T06:50:57.322Z,83.2
2018-08-06T06:51:17.596Z,82.4
2018-08-06T06:51:38.767Z,82.7
2018-08-06T06:51:59.129Z,81.9
2018-08-06T06:52:19.464Z,82.9
2018-08-06T06:52:39.685Z,84.4
2018-08-06T06:53:00.193Z,83.7
2018-08-06T06:53:20.716Z,83.1
2018-08-06T06:53:41.044Z,82.6
2018-08-06T06:54:01.317Z,82.9
2018-08-06T06:54:21.820Z,82.9
2018-08-06T06:54:42.148Z,82.7
2018-08-06T06:55:02.440Z,82.9
2018-08-06T06:55:22.662Z,82.6
2018-08-06T06:55:42.927Z,82.8
2018-08-06T06:56:03.130Z,82.7
2018-08-06T06:56:23.434Z,82.8
2018-08-06T06:56:43.671Z,83.1
2018-08-06T06:57:04.742Z,82.8
2018-08-06T06:57:24.975Z,83.3
2018-08-06T06:57:45.197Z,83
2018-08-06T06:58:05.535Z,83.1
2018-08-06T06:58:25.820Z,83.6
2018-08-06T06:58:46.039Z,83.1
2018-08-06T06:59:06.237Z,82.7
2018-08-06T06:59:26.543Z,81.4
2018-08-06T06:59:46.750Z,81.4
2018-08-06T07:00:07.193Z,80.7
2018-08-06T07:00:27.409Z,80.7
2018-08-06T07:00:47.835Z,81.3
2018-08-06T07:01:08.239Z,81.6
2018-08-06T07:01:28.649Z,81.6
2018-08-06T07:01:48.935Z,82.1
2018-08-06T07:02:10.174Z,82
2018-08-06T07:02:31.187Z,82.1
2018-08-06T07:02:51.384Z,82.2
2018-08-06T07:03:11.640Z,81.8
2018-08-06T07:03:31.826Z,81.6
2018-08-06T07:03:53.156Z,81.1
2018-08-06T07:04:13.331Z,80.7
2018-08-06T07:04:33.340Z,80.9
2018-08-06T07:04:53.536Z,81.5
2018-08-06T07:05:13.917Z,82
2018-08-06T07:05:34.229Z,81.8
2018-08-06T07:05:54.404Z,81
2018-08-06T07:06:15.693Z,80.7
2018-08-06T07:06:36.115Z,80.9
2018-08-06T07:06:56.192Z,80.9
2018-08-06T07:07:16.593Z,81.2
2018-08-06T07:07:36.777Z,81.6
2018-08-06T07:07:56.966Z,81.4
2018-08-06T07:08:17.217Z,81.2
2018-08-06T07:08:37.488Z,81.2
2018-08-06T07:08:57.687Z,80.7
2018-08-06T07:09:17.944Z,81.1
2018-08-06T07:09:39.174Z,81
2018-08-06T07:09:59.313Z,81.1
2018-08-06T07:10:19.610Z,80.6
2018-08-06T07:10:39.832Z,79.5
2018-08-06T07:11:00.115Z,79.2
2018-08-06T07:11:21.160Z,79.4
2018-08-06T07:11:41.352Z,79.4
2018-08-06T07:12:01.509Z,78.6
2018-08-06T07:12:21.669Z,76.8
2018-08-06T07:12:42.104Z,76
2018-08-06T07:13:03.361Z,76.4
2018-08-06T07:13:23.699Z,76.9
2018-08-06T07:13:44.816Z,77.3
2018-08-06T07:14:05.023Z,78.1
2018-08-06T07:14:25.278Z,78.3
2018-08-06T07:14:45.601Z,77.7
2018-08-06T07:15:06.117Z,77.4
2018-08-06T07:15:26.512Z,77.6
2018-08-06T07:15:47.187Z,77.9
2018-08-06T07:16:07.402Z,77.9
2018-08-06T07:16:27.717Z,79.3
2018-08-06T07:16:47.985Z,80
2018-08-06T07:17:08.235Z,79.3
2018-08-06T07:17:28.467Z,79
2018-08-06T07:17:48.696Z,79.3
2018-08-06T07:18:08.955Z,79.3
2018-08-06T07:18:29.286Z,80.1
2018-08-06T07:18:50.088Z,79.4
2018-08-06T07:19:10.332Z,78.8
2018-08-06T07:19:30.555Z,78.9
2018-08-06T07:19:50.828Z,79.2
2018-08-06T07:20:11.196Z,79.2
2018-08-06T07:20:31.421Z,79.2
2018-08-06T07:20:51.696Z,78.7
2018-08-06T07:21:12.182Z,78.7
2018-08-06T07:21:32.459Z,78.6
2018-08-06T07:21:52.709Z,78.6
2018-08-06T07:22:12.900Z,78.6
2018-08-06T07:22:33.082Z,78.6
2018-08-06T07:22:54.185Z,79.1
2018-08-06T07:23:14.494Z,78.4
2018-08-06T07:23:34.719Z,77.1
2018-08-06T07:23:54.918Z,75
2018-08-06T07:24:15.110Z,76
2018-08-06T07:24:35.315Z,75.9
2018-08-06T07:24:55.460Z,76.4
2018-08-06T07:25:15.729Z,77
2018-08-06T07:25:36.118Z,76.9
2018-08-06T07:25:56.436Z,77
2018-08-06T07:26:16.852Z,76.9
2018-08-06T07:26:37.094Z,76.7
2018-08-06T07:26:57.368Z,76.5
2018-08-06T07:27:17.554Z,76.2
2018-08-06T07:27:38.710Z,75
2018-08-06T07:27:58.970Z,75.2
2018-08-06T07:28:19.178Z,75.9
2018-08-06T07:28:39.438Z,77.1
2018-08-06T07:28:59.646Z,78.1
2018-08-06T07:29:19.846Z,77.8
2018-08-06T07:29:40.083Z,77.9
2018-08-06T07:30:00.382Z,77.5
2018-08-06T07:30:20.583Z,77.9
2018-08-06T07:30:40.809Z,77.7
2018-08-06T07:31:01.019Z,76.6
2018-08-06T07:31:21.288Z,76
2018-08-06T07:31:41.468Z,75.7
2018-08-06T07:32:01.823Z,74.8
2018-08-06T07:32:21.978Z,76.1
2018-08-06T07:32:42.255Z,77.5
2018-08-06T07:33:02.456Z,77.2
2018-08-06T07:33:22.719Z,76.5
2018-08-06T07:33:43.183Z,76.2
2018-08-06T07:34:03.300Z,76.4
2018-08-06T07:34:23.474Z,76.9
2018-08-06T07:34:43.807Z,76.4
2018-08-06T07:35:04.140Z,76.4
2018-08-06T07:35:24.348Z,76.7
2018-08-06T07:35:44.612Z,76.5
2018-08-06T07:36:06.294Z,77.3
2018-08-06T07:36:26.478Z,76.5
2018-08-06T07:36:46.736Z,75.5
2018-08-06T07:37:06.914Z,74.1
2018-08-06T07:37:27.142Z,74
2018-08-06T07:37:47.348Z,75.1
2018-08-06T07:38:07.575Z,75.4
2018-08-06T07:38:27.848Z,75.5
2018-08-06T07:38:48.052Z,75.5
2018-08-06T07:39:08.242Z,74.7
2018-08-06T07:39:28.528Z,73.3
2018-08-06T07:39:48.690Z,72.6
2018-08-06T07:40:08.981Z,73
2018-08-06T07:40:29.152Z,73.3
2018-08-06T07:40:49.392Z,74.9
2018-08-06T07:41:09.725Z,74.3
2018-08-06T07:41:30.013Z,74.2
2018-08-06T07:41:50.133Z,74.3
2018-08-06T07:42:10.298Z,75
2018-08-06T07:42:30.480Z,75
2018-08-06T07:42:50.711Z,74.2
2018-08-06T07:43:10.965Z,74.6
2018-08-06T07:43:31.784Z,74
2018-08-06T07:43:52.186Z,74.2
2018-08-06T07:44:12.394Z,74.1
2018-08-06T07:44:32.533Z,74.4
2018-08-06T07:44:52.718Z,73.2
2018-08-06T07:45:12.926Z,73.4
2018-08-06T07:45:33.203Z,73.4
2018-08-06T07:45:53.519Z,73.5
2018-08-06T07:46:13.688Z,72.4
2018-08-06T07:46:33.917Z,72.6
2018-08-06T07:46:54.127Z,72.4
2018-08-06T07:47:14.455Z,72.2
2018-08-06T07:47:34.589Z,72.3
2018-08-06T07:47:54.805Z,71.6
2018-08-06T07:48:15.292Z,71.4
2018-08-06T07:48:35.686Z,70.8
2018-08-06T07:48:55.992Z,70.1
2018-08-06T07:49:16.275Z,69.9
2018-08-06T07:49:36.643Z,70
2018-08-06T07:49:57.371Z,70.1
2018-08-06T07:50:17.505Z,70.5
2018-08-06T07:50:37.734Z,70.8
2018-08-06T07:50:58.064Z,71.8
2018-08-06T07:51:18.613Z,71.2
2018-08-06T07:51:38.825Z,70.8
2018-08-06T07:51:59.277Z,71
2018-08-06T07:52:19.432Z,71
2018-08-06T07:52:39.700Z,71.2
2018-08-06T07:52:59.902Z,70.3
2018-08-06T07:53:20.172Z,71.1
2018-08-06T07:53:40.476Z,71.9
2018-08-06T07:54:00.679Z,71.8
2018-08-06T07:54:21.612Z,69.2
2018-08-06T07:54:41.817Z,68
2018-08-06T07:55:02.141Z,67.2
2018-08-06T07:55:22.413Z,68.1
2018-08-06T07:55:42.581Z,68.5
2018-08-06T07:56:02.759Z,68.1
2018-08-06T07:56:22.978Z,68.1
2018-08-06T07:56:43.159Z,68.5
2018-08-06T07:57:03.363Z,68.5
2018-08-06T07:57:23.554Z,67.6
2018-08-06T07:57:43.762Z,66.2
2018-08-06T07:58:04.012Z,65.9
2018-08-06T07:58:24.269Z,66.3
2018-08-06T07:58:44.515Z,67.3
2018-08-06T07:59:04.666Z,69.2
2018-08-06T07:59:24.891Z,70
2018-08-06T07:59:45.129Z,69.1
2018-08-06T08:00:05.512Z,67.3
2018-08-06T08:00:25.724Z,67.3
2018-08-06T08:00:45.948Z,67.7
2018-08-06T08:01:06.151Z,69.9
2018-08-06T08:01:26.320Z,69.8
2018-08-06T08:01:46.532Z,69.4
2018-08-06T08:02:06.827Z,69
2018-08-06T08:02:27.089Z,70.1
2018-08-06T08:02:47.430Z,70.1
2018-08-06T08:03:07.666Z,69.7
2018-08-06T08:03:27.934Z,69.5
2018-08-06T08:03:48.105Z,69.6
2018-08-06T08:04:08.341Z,68.9
2018-08-06T08:04:28.638Z,68.2
2018-08-06T08:04:48.869Z,68.3
2018-08-06T08:05:09.072Z,68
2018-08-06T08:05:29.294Z,68.1
2018-08-06T08:05:49.430Z,67
2018-08-06T08:06:09.896Z,66
2018-08-06T08:06:30.102Z,64.9
2018-08-06T08:06:50.356Z,65.4
2018-08-06T08:07:10.594Z,64.1
2018-08-06T08:07:30.768Z,65
2018-08-06T08:07:50.996Z,66
2018-08-06T08:08:11.254Z,65.9
2018-08-06T08:08:31.442Z,66.4
2018-08-06T08:08:51.668Z,66.6
2018-08-06T08:09:11.914Z,66.7
2018-08-06T08:09:32.151Z,66.9
2018-08-06T08:09:52.335Z,66.6
2018-08-06T08:10:12.567Z,66.9
2018-08-06T08:10:32.736Z,66.7
2018-08-06T08:10:52.908Z,67.3
2018-08-06T08:11:13.063Z,67
2018-08-06T08:11:33.295Z,66.2
2018-08-06T08:11:53.490Z,64.4
2018-08-06T08:12:13.704Z,63.5
2018-08-06T08:12:33.919Z,64.4
2018-08-06T08:12:54.066Z,63.3
2018-08-06T08:13:14.216Z,64.4
2018-08-06T08:13:34.489Z,64.2
2018-08-06T08:13:54.723Z,63
2018-08-06T08:14:14.873Z,62.7
2018-08-06T08:14:35.191Z,62.8
2018-08-06T08:14:55.413Z,62
2018-08-06T08:15:15.585Z,61
2018-08-06T08:15:35.775Z,60.9
2018-08-06T08:15:56.009Z,60.6
2018-08-06T08:16:17.153Z,60.7
2018-08-06T08:16:37.361Z,61.1
2018-08-06T08:16:57.634Z,61.6
2018-08-06T08:17:17.834Z,61.8
2018-08-06T08:17:37.995Z,60.8
2018-08-06T08:17:58.180Z,60.1
2018-08-06T08:18:18.365Z,59.5
2018-08-06T08:18:38.710Z,58.9
2018-08-06T08:18:58.931Z,58.4
2018-08-06T08:19:19.125Z,58.2
2018-08-06T08:19:39.639Z,58.1
2018-08-06T08:19:59.841Z,58.4
2018-08-06T08:20:20.387Z,59.4
2018-08-06T08:20:40.740Z,59.8
2018-08-06T08:21:00.943Z,58.5
2018-08-06T08:21:21.139Z,58.7
2018-08-06T08:21:41.412Z,58.3
2018-08-06T08:22:01.651Z,58.2
2018-08-06T08:22:21.811Z,57.9
2018-08-06T08:22:41.994Z,58
2018-08-06T08:23:02.223Z,57.3
2018-08-06T08:23:22.393Z,56.9
2018-08-06T08:23:42.573Z,56.1
2018-08-06T08:24:02.746Z,55.2
2018-08-06T08:24:22.972Z,55.7
2018-08-06T08:24:43.112Z,56.3
2018-08-06T08:25:03.332Z,56.1
2018-08-06T08:25:23.448Z,56.3
2018-08-06T08:25:43.627Z,56.7
2018-08-06T08:26:03.841Z,57
2018-08-06T08:26:24.017Z,57.3
2018-08-06T08:26:44.212Z,58.2
2018-08-06T08:27:04.465Z,58.3
2018-08-06T08:27:24.631Z,57.9
2018-08-06T08:27:44.822Z,57.5
2018-08-06T08:28:05.006Z,57.1
2018-08-06T08:28:25.224Z,58.5
2018-08-06T08:28:45.424Z,58.2
2018-08-06T08:29:05.592Z,57.5
2018-08-06T08:29:25.810Z,58.1
2018-08-06T08:29:45.976Z,58.6
2018-08-06T08:30:06.152Z,58.6
2018-08-06T08:30:26.347Z,58.3
2018-08-06T08:30:46.492Z,57.4
2018-08-06T08:31:06.656Z,57.1
2018-08-06T08:31:26.814Z,58.3
2018-08-06T08:31:47.003Z,58.2
2018-08-06T08:32:07.215Z,57
2018-08-06T08:32:27.441Z,56.7
2018-08-06T08:32:47.659Z,56.7
2018-08-06T08:33:07.840Z,55.9
2018-08-06T08:33:28.004Z,54.7
2018-08-06T08:33:48.187Z,54.9
2018-08-06T08:34:08.432Z,54.7
2018-08-06T08:34:28.594Z,54.8
2018-08-06T08:34:48.804Z,55.3
2018-08-06T08:35:09.047Z,55.8
2018-08-06T08:35:29.302Z,56.2
2018-08-06T08:35:49.549Z,56.2
2018-08-06T08:36:09.793Z,55.7
2018-08-06T08:36:29.960Z,55.9
2018-08-06T08:36:50.205Z,56.2
2018-08-06T08:37:10.428Z,56.3
2018-08-06T08:37:30.598Z,55.9
2018-08-06T08:37:50.794Z,56.3
2018-08-06T08:38:10.996Z,56.2
2018-08-06T08:38:31.205Z,55.6
2018-08-06T08:38:51.486Z,55.9
2018-08-06T08:39:11.888Z,56.3
2018-08-06T08:39:32.142Z,56.3
2018-08-06T08:39:52.280Z,56.2
2018-08-06T08:40:12.514Z,56.3
2018-08-06T08:40:32.682Z,56.5
2018-08-06T08:40:52.896Z,54.4
2018-08-06T08:41:13.173Z,53.4
2018-08-06T08:41:33.392Z,52.7
2018-08-06T08:41:53.597Z,51.4
2018-08-06T08:42:13.737Z,49.7
2018-08-06T08:42:33.948Z,50.3
2018-08-06T08:42:54.100Z,49.9
2018-08-06T08:43:14.426Z,49.9
2018-08-06T08:43:34.626Z,49.9
2018-08-06T08:43:54.875Z,50.5
2018-08-06T08:44:15.082Z,51.3
2018-08-06T08:44:35.277Z,51.7
2018-08-06T08:44:55.467Z,52.5
2018-08-06T08:45:15.721Z,52.9
2018-08-06T08:45:35.951Z,52.9
2018-08-06T08:45:56.323Z,52
2018-08-06T08:46:16.925Z,51.8
2018-08-06T08:46:37.121Z,50.8
2018-08-06T08:46:57.301Z,50.5
2018-08-06T08:47:17.720Z,50.2
2018-08-06T08:47:38.078Z,50.9
2018-08-06T08:47:58.259Z,51.3
2018-08-06T08:48:18.543Z,51.2
2018-08-06T08:48:38.913Z,51.9
2018-08-06T08:48:59.194Z,51.6
2018-08-06T08:49:19.379Z,51.6
2018-08-06T08:49:39.541Z,51.3
2018-08-06T08:49:59.800Z,51.7
2018-08-06T08:50:20.041Z,51.1
2018-08-06T08:50:40.471Z,50.7
2018-08-06T08:51:00.782Z,50.6
2018-08-06T08:51:20.991Z,50.6
2018-08-06T08:51:41.138Z,50.7
2018-08-06T08:52:01.337Z,51.8
2018-08-06T08:52:21.637Z,51.5
2018-08-06T08:52:41.836Z,52.1
2018-08-06T08:53:02.073Z,52.3
2018-08-06T08:53:22.212Z,52.9
2018-08-06T08:53:42.418Z,53.1
2018-08-06T08:54:02.631Z,52.9
2018-08-06T08:54:22.772Z,52.8
2018-08-06T08:54:42.923Z,52.8
2018-08-06T08:55:03.150Z,52.6
2018-08-06T08:55:23.448Z,52.3
2018-08-06T08:55:43.697Z,52.7
2018-08-06T08:56:04.070Z,51.6
2018-08-06T08:56:24.331Z,51.4
2018-08-06T08:56:44.482Z,51.2
2018-08-06T08:57:04.688Z,50.4
2018-08-06T08:57:25.021Z,49.9
2018-08-06T08:57:45.170Z,51.3
2018-08-06T08:58:05.355Z,51
2018-08-06T08:58:25.538Z,50.3
2018-08-06T08:58:45.865Z,50
2018-08-06T08:59:05.914Z,49.6
2018-08-06T08:59:26.120Z,49.1
2018-08-06T08:59:46.293Z,49.2
2018-08-06T09:00:06.466Z,49.1
2018-08-06T09:00:26.667Z,48.4
2018-08-06T09:00:46.849Z,48.7
2018-08-06T09:01:07.028Z,49
2018-08-06T09:01:27.203Z,47.9
2018-08-06T09:01:47.346Z,47.8
2018-08-06T09:02:07.495Z,47.4
2018-08-06T09:02:27.656Z,47.4
2018-08-06T09:02:47.795Z,47.9
2018-08-06T09:03:07.994Z,49
2018-08-06T09:03:28.176Z,48.8
2018-08-06T09:03:48.381Z,49
2018-08-06T09:04:08.564Z,49.7
2018-08-06T09:04:28.735Z,49
2018-08-06T09:04:48.924Z,49.1
2018-08-06T09:05:09.111Z,49.5
2018-08-06T09:05:29.293Z,50.8
2018-08-06T09:05:49.498Z,50.8
2018-08-06T09:06:09.664Z,52.2
2018-08-06T09:06:29.837Z,52
2018-08-06T09:06:49.979Z,52
2018-08-06T09:07:10.119Z,50.9
2018-08-06T09:07:30.318Z,50.4
2018-08-06T09:07:50.485Z,49.2
2018-08-06T09:08:10.727Z,49.4
2018-08-06T09:08:30.876Z,49.5
2018-08-06T09:08:51.077Z,49.6
2018-08-06T09:09:11.259Z,50.5
2018-08-06T09:09:31.446Z,51.2
2018-08-06T09:09:51.598Z,49.1
2018-08-06T09:10:11.800Z,48.1
2018-08-06T09:10:31.985Z,47.9
2018-08-06T09:10:52.191Z,48
2018-08-06T09:11:12.412Z,48.9
2018-08-06T09:11:32.576Z,48.8
2018-08-06T09:11:52.770Z,49.2
2018-08-06T09:12:12.926Z,49.3
2018-08-06T09:12:33.118Z,49.1
2018-08-06T09:12:53.312Z,48.9
2018-08-06T09:13:13.523Z,48.6
2018-08-06T09:13:33.772Z,48.2
2018-08-06T09:13:53.976Z,48
2018-08-06T09:14:14.236Z,48.2
2018-08-06T09:14:34.500Z,48.7
2018-08-06T09:14:54.704Z,48.9
2018-08-06T09:15:14.881Z,48.9
2018-08-06T09:15:35.057Z,48.8
2018-08-06T09:15:55.257Z,49.3
2018-08-06T09:16:15.459Z,49.9
2018-08-06T09:16:35.688Z,51.3
2018-08-06T09:16:55.826Z,50.6
2018-08-06T09:17:16.000Z,51.3
2018-08-06T09:17:36.165Z,51.1
2018-08-06T09:17:56.326Z,50.8
2018-08-06T09:18:16.505Z,51.6
2018-08-06T09:18:36.690Z,51.5
2018-08-06T09:18:56.831Z,51.7
2018-08-06T09:19:16.989Z,51.2
2018-08-06T09:19:37.154Z,51.4
2018-08-06T09:19:57.331Z,52
2018-08-06T09:20:17.476Z,50.5
2018-08-06T09:20:37.622Z,49.8
2018-08-06T09:20:57.839Z,50.3
2018-08-06T09:21:18.179Z,51.3
2018-08-06T09:21:38.273Z,51.7
2018-08-06T09:21:58.449Z,50.9
2018-08-06T09:22:18.644Z,51.7
2018-08-06T09:22:38.921Z,50.3
2018-08-06T09:22:59.112Z,49.5
2018-08-06T09:23:19.271Z,49
2018-08-06T09:23:39.458Z,49.8
2018-08-06T09:23:59.662Z,49.9
2018-08-06T09:24:19.853Z,49.9
2018-08-06T09:24:40.090Z,47.6
2018-08-06T09:25:00.351Z,47.9
2018-08-06T09:25:20.615Z,48
2018-08-06T09:25:40.735Z,49.1
2018-08-06T09:26:00.895Z,49.5
2018-08-06T09:26:21.072Z,49.5
2018-08-06T09:26:41.290Z,50.4
2018-08-06T09:27:01.922Z,49.1
2018-08-06T09:27:22.228Z,48.6
2018-08-06T09:27:42.431Z,48.9
2018-08-06T09:28:02.633Z,49.3
2018-08-06T09:28:22.820Z,48.8
2018-08-06T09:28:43.030Z,49.3
2018-08-06T09:29:03.347Z,46.8
2018-08-06T09:29:23.546Z,46.5
2018-08-06T09:29:43.788Z,46.5
2018-08-06T09:30:04.014Z,45.5
2018-08-06T09:30:24.214Z,44.9
2018-08-06T09:30:44.390Z,44.9
2018-08-06T09:31:04.664Z,45.4
2018-08-06T09:31:24.897Z,45.7
2018-08-06T09:31:45.197Z,46.1
2018-08-06T09:32:05.428Z,46.7
2018-08-06T09:32:25.658Z,47.3
2018-08-06T09:32:45.831Z,48.4
2018-08-06T09:33:06.074Z,47.6
2018-08-06T09:33:26.221Z,47.4
2018-08-06T09:33:46.410Z,48.2
2018-08-06T09:34:06.664Z,48.8
2018-08-06T09:34:26.733Z,47.7
2018-08-06T09:34:46.931Z,47.4
2018-08-06T09:35:07.088Z,47.3
2018-08-06T09:35:27.252Z,48
2018-08-06T09:35:47.429Z,47.7
2018-08-06T09:36:07.579Z,47.4
2018-08-06T09:36:27.764Z,48.9
2018-08-06T09:36:47.913Z,48.9
2018-08-06T09:37:08.139Z,48.6
2018-08-06T09:37:28.253Z,47.8
2018-08-06T09:37:48.405Z,47.2
2018-08-06T09:38:08.546Z,46.4
2018-08-06T09:38:28.696Z,46.1
2018-08-06T09:38:48.836Z,46.6
2018-08-06T09:39:09.013Z,47.1
2018-08-06T09:39:29.148Z,47.4
2018-08-06T09:39:49.303Z,47.4
2018-08-06T09:40:09.448Z,47.5
2018-08-06T09:40:29.712Z,48
2018-08-06T09:40:49.972Z,48.6
2018-08-06T09:41:10.116Z,48.3
2018-08-06T09:41:30.272Z,48.9
2018-08-06T09:41:50.410Z,48.5
2018-08-06T09:42:10.545Z,48.5
2018-08-06T09:42:30.695Z,48.9
2018-08-06T09:42:50.887Z,47.7
2018-08-06T09:43:11.036Z,47.3
2018-08-06T09:43:31.252Z,47.5
2018-08-06T09:43:51.394Z,47.4
2018-08-06T09:44:11.527Z,47.4
2018-08-06T09:44:31.729Z,44.9
2018-08-06T09:44:51.884Z,44.7
2018-08-06T09:45:12.022Z,45.1
2018-08-06T09:45:32.186Z,44.8
2018-08-06T09:45:52.332Z,44.5
2018-08-06T09:46:12.474Z,45
2018-08-06T09:46:32.635Z,45
2018-08-06T09:46:52.809Z,45.4
2018-08-06T09:47:12.945Z,45.2
2018-08-06T09:47:33.109Z,45.6
2018-08-06T09:47:53.286Z,46.3
2018-08-06T09:48:13.465Z,46.1
2018-08-06T09:48:33.676Z,46.5
2018-08-06T09:48:53.866Z,47.4
2018-08-06T09:49:14.072Z,47.4
2018-08-06T09:49:34.217Z,48.8
2018-08-06T09:49:54.376Z,48.9
2018-08-06T09:50:14.527Z,48.3
2018-08-06T09:50:34.673Z,47.6
2018-08-06T09:50:54.842Z,47.4
2018-08-06T09:51:15.071Z,47.9
2018-08-06T09:51:35.225Z,47.9
2018-08-06T09:51:55.392Z,48.1
2018-08-06T09:52:15.604Z,48.2
2018-08-06T09:52:35.732Z,47.9
2018-08-06T09:52:55.910Z,47.4
2018-08-06T09:53:16.051Z,47
2018-08-06T09:53:36.223Z,46.8
2018-08-06T09:53:56.381Z,46.4
2018-08-06T09:54:16.540Z,46.5
2018-08-06T09:54:36.686Z,46.5
2018-08-06T09:54:56.907Z,47.4
2018-08-06T09:55:17.067Z,47.6
2018-08-06T09:55:37.279Z,47.9
2018-08-06T09:55:57.448Z,46.1
2018-08-06T09:56:17.578Z,45.3
2018-08-06T09:56:37.783Z,45.3
2018-08-06T09:56:57.955Z,45.9
2018-08-06T09:57:18.126Z,45.7
2018-08-06T09:57:38.262Z,46
2018-08-06T09:57:58.430Z,44.8
2018-08-06T09:58:18.594Z,44
2018-08-06T09:58:38.790Z,44.4
2018-08-06T09:58:58.937Z,47.4
2018-08-06T09:59:19.183Z,47.5
2018-08-06T09:59:39.325Z,47.4
2018-08-06T09:59:59.453Z,46.2
2018-08-06T10:00:19.607Z,46.5
2018-08-06T10:00:39.771Z,48.3
2018-08-06T10:00:59.922Z,47.1
2018-08-06T10:01:20.106Z,46.1
2018-08-06T10:01:40.255Z,46.2
2018-08-06T10:02:00.460Z,45.1
2018-08-06T10:02:20.590Z,44.8
2018-08-06T10:02:40.752Z,44.9
2018-08-06T10:03:00.892Z,45.2
2018-08-06T10:03:21.029Z,46.4
2018-08-06T10:03:41.192Z,47.4
2018-08-06T10:04:01.372Z,47.5
2018-08-06T10:04:21.551Z,46.4
2018-08-06T10:04:41.702Z,46.1
2018-08-06T10:05:01.844Z,46.5
2018-08-06T10:05:22.027Z,45.8
2018-08-06T10:05:42.464Z,46.2
2018-08-06T10:06:02.864Z,45.5
2018-08-06T10:06:23.236Z,45.3
2018-08-06T10:06:43.404Z,45.2
2018-08-06T10:07:03.384Z,46.2
2018-08-06T10:07:23.526Z,45.7
2018-08-06T10:07:43.684Z,46
2018-08-06T10:08:03.821Z,46.7
2018-08-06T10:08:23.963Z,47.4
2018-08-06T10:08:44.097Z,47.4
2018-08-06T10:09:04.258Z,48.9
2018-08-06T10:09:24.437Z,48.2
2018-08-06T10:09:44.614Z,46.1
2018-08-06T10:10:04.767Z,46.3
2018-08-06T10:10:24.933Z,46.4
2018-08-06T10:10:45.106Z,46.1
2018-08-06T10:11:05.259Z,45.5
2018-08-06T10:11:25.496Z,44.4
2018-08-06T10:11:45.674Z,44.8
2018-08-06T10:12:05.910Z,45.7
2018-08-06T10:12:26.022Z,45.2
2018-08-06T10:12:46.167Z,45.7
2018-08-06T10:13:06.340Z,46.3
2018-08-06T10:13:26.517Z,47.4
2018-08-06T10:13:46.658Z,47.4
2018-08-06T10:14:06.831Z,47.1
2018-08-06T10:14:26.982Z,47.4
2018-08-06T10:14:47.155Z,47.6
2018-08-06T10:15:07.316Z,47.1
2018-08-06T10:15:27.447Z,47
2018-08-06T10:15:47.611Z,47
2018-08-06T10:16:07.815Z,47.6
2018-08-06T10:16:27.971Z,47.6
2018-08-06T10:16:48.135Z,47.7
2018-08-06T10:17:08.283Z,47.6
2018-08-06T10:17:28.464Z,47.3
2018-08-06T10:17:48.611Z,47.6
2018-08-06T10:18:08.769Z,47.3
2018-08-06T10:18:28.923Z,46.6
2018-08-06T10:18:49.311Z,46.7